createdAt,value
2022-11-02T00:00:42.847Z,12.60
2022-11-02T00:03:11.310Z,12.60
2022-11-02T00:05:39.702Z,12.70
2022-11-02T00:08:07.946Z,12.70
2022-11-02T00:10:36.160Z,12.80
2022-11-02T00:13:04.713Z,12.80
2022-11-02T00:15:37.267Z,12.90
2022-11-02T00:18:08.986Z,12.90
2022-11-02T00:20:38.484Z,12.90
2022-11-02T00:23:10.876Z,12.70
2022-11-02T00:25:42.798Z,12.70
2022-11-02T00:28:11.388Z,12.60
2022-11-02T00:30:41.276Z,12.50
2022-11-02T00:33:09.499Z,12.40
2022-11-02T00:35:38.482Z,12.30
2022-11-02T00:38:07.377Z,12.30
2022-11-02T00:40:35.873Z,12.20
2022-11-02T00:43:06.906Z,12.10
2022-11-02T00:45:35.161Z,12.00
2022-11-02T00:48:08.177Z,11.90
2022-11-02T00:50:36.439Z,11.80
2022-11-02T00:53:05.367Z,11.80
2022-11-02T00:55:33.612Z,11.70
2022-11-02T00:58:02.124Z,11.70
2022-11-02T01:00:30.675Z,11.70
2022-11-02T01:03:01.619Z,11.70
2022-11-02T01:05:31.875Z,11.60
2022-11-02T01:08:00.161Z,11.50
2022-11-02T01:10:28.620Z,11.50
2022-11-02T01:12:56.872Z,11.50
2022-11-02T01:15:28.900Z,11.50
2022-11-02T01:17:57.136Z,11.50
2022-11-02T01:20:25.508Z,11.50
2022-11-02T01:22:55.208Z,11.50
2022-11-02T01:25:23.511Z,11.50
2022-11-02T01:27:51.837Z,11.50
2022-11-02T01:30:20.080Z,11.50
2022-11-02T01:32:50.380Z,11.50
2022-11-02T01:35:18.692Z,11.40
2022-11-02T01:37:46.953Z,11.40
2022-11-02T01:40:16.772Z,11.40
2022-11-02T01:42:45.044Z,11.30
2022-11-02T01:45:15.916Z,11.40
2022-11-02T01:47:47.484Z,11.50
2022-11-02T01:50:19.876Z,11.50
2022-11-02T01:52:48.253Z,11.50
2022-11-02T01:55:22.453Z,11.50
2022-11-02T01:57:56.993Z,11.50
2022-11-02T02:00:25.266Z,11.60
2022-11-02T02:02:58.016Z,11.60
2022-11-02T02:05:33.637Z,11.60
2022-11-02T02:08:03.835Z,11.60
2022-11-02T02:10:33.776Z,11.50
2022-11-02T02:13:02.048Z,11.60
2022-11-02T02:15:40.249Z,11.70
2022-11-02T02:18:14.198Z,11.70
2022-11-02T02:21:02.035Z,11.80
2022-11-02T02:24:08.974Z,11.80
2022-11-02T02:27:10.164Z,11.70
2022-11-02T02:30:05.466Z,11.70
2022-11-02T02:32:42.171Z,11.70
2022-11-02T02:35:21.117Z,11.70
2022-11-02T02:37:57.281Z,11.80
2022-11-02T02:40:31.690Z,11.80
2022-11-02T02:43:06.133Z,11.80
2022-11-02T02:45:39.541Z,11.80
2022-11-02T02:48:12.933Z,11.80
2022-11-02T02:50:47.233Z,11.70
2022-11-02T02:53:17.660Z,11.60
2022-11-02T02:55:49.181Z,11.60
2022-11-02T02:58:21.702Z,11.60
2022-11-02T03:00:53.010Z,11.60
2022-11-02T03:03:24.952Z,11.60
2022-11-02T03:06:06.100Z,11.70
2022-11-02T03:08:37.081Z,11.70
2022-11-02T03:11:14.292Z,11.70
2022-11-02T03:13:52.822Z,11.80
2022-11-02T03:16:37.414Z,11.80
2022-11-02T03:19:16.652Z,11.80
2022-11-02T03:21:46.725Z,11.70
2022-11-02T03:24:18.226Z,11.60
2022-11-02T03:26:51.642Z,11.50
2022-11-02T03:29:27.321Z,11.50
2022-11-02T03:32:01.441Z,11.50
2022-11-02T03:34:38.696Z,11.40
2022-11-02T03:37:15.119Z,11.40
2022-11-02T03:39:47.894Z,11.30
2022-11-02T03:42:20.181Z,11.40
2022-11-02T03:44:52.367Z,11.30
2022-11-02T03:47:22.913Z,11.20
2022-11-02T03:49:53.308Z,11.20
2022-11-02T03:52:27.558Z,11.10
2022-11-02T03:55:04.932Z,11.10
2022-11-02T03:57:37.551Z,11.00
2022-11-02T04:00:10.834Z,11.10
2022-11-02T04:02:42.279Z,11.00
2022-11-02T04:05:10.692Z,11.00
2022-11-02T04:08:00.117Z,11.00
2022-11-02T04:10:28.505Z,10.90
2022-11-02T04:13:14.314Z,10.90
2022-11-02T04:15:42.746Z,10.90
2022-11-02T04:18:44.379Z,10.90
2022-11-02T04:21:12.919Z,10.90
2022-11-02T04:23:58.333Z,10.90
2022-11-02T04:26:26.610Z,10.90
2022-11-02T04:28:54.844Z,10.90
2022-11-02T04:31:23.190Z,10.80
2022-11-02T04:33:51.848Z,10.80
2022-11-02T04:36:20.123Z,10.90
2022-11-02T04:38:47.376Z,10.90
2022-11-02T04:41:34.917Z,10.90
2022-11-02T04:44:04.208Z,10.90
2022-11-02T04:46:34.603Z,10.80
2022-11-02T04:49:06.560Z,10.80
2022-11-02T04:51:35.202Z,10.80
2022-11-02T04:54:04.065Z,10.80
2022-11-02T04:56:32.417Z,10.70
2022-11-02T04:59:01.649Z,10.70
2022-11-02T05:01:31.306Z,10.70
2022-11-02T05:03:59.858Z,10.60
2022-11-02T05:06:29.601Z,10.60
2022-11-02T05:08:58.200Z,10.60
2022-11-02T05:11:26.513Z,10.60
2022-11-02T05:13:54.834Z,10.50
2022-11-02T05:16:23.114Z,10.40
2022-11-02T05:18:51.387Z,10.40
2022-11-02T05:21:19.730Z,10.40
2022-11-02T05:23:49.321Z,10.40
2022-11-02T05:26:17.795Z,10.40
2022-11-02T05:28:46.043Z,10.40
2022-11-02T05:31:14.338Z,10.40
2022-11-02T05:33:43.078Z,10.40
2022-11-02T05:36:11.381Z,10.30
2022-11-02T05:41:14.584Z,10.20
2022-11-02T05:43:43.011Z,10.20
2022-11-02T05:46:11.252Z,10.20
2022-11-02T05:48:39.528Z,10.20
2022-11-02T05:51:08.465Z,10.20
2022-11-02T05:53:38.429Z,10.20
2022-11-02T05:56:08.997Z,10.20
2022-11-02T05:58:39.058Z,10.10
2022-11-02T06:01:09.340Z,10.00
2022-11-02T06:03:38.462Z,10.00
2022-11-02T06:06:09.061Z,10.00
2022-11-02T06:08:38.764Z,9.90
2022-11-02T06:11:07.657Z,10.00
2022-11-02T06:13:36.374Z,10.00
2022-11-02T06:16:09.432Z,10.00
2022-11-02T06:18:40.654Z,9.90
2022-11-02T06:21:09.363Z,9.90
2022-11-02T06:23:39.341Z,9.80
2022-11-02T06:26:07.789Z,9.70
2022-11-02T06:28:35.968Z,9.70
2022-11-02T06:31:06.020Z,9.80
2022-11-02T06:33:34.301Z,9.70
2022-11-02T06:36:02.628Z,9.70
2022-11-02T06:38:30.898Z,9.70
2022-11-02T06:41:00.364Z,9.60
2022-11-02T06:43:28.860Z,9.60
2022-11-02T06:45:58.306Z,9.60
2022-11-02T06:48:34.596Z,9.60
2022-11-02T06:51:04.337Z,9.50
2022-11-02T06:53:32.813Z,9.40
2022-11-02T06:56:01.543Z,9.40
2022-11-02T06:58:30.236Z,9.50
2022-11-02T07:01:00.308Z,9.40
2022-11-02T07:03:30.871Z,9.40
2022-11-02T07:05:59.511Z,9.50
2022-11-02T07:08:28.698Z,9.60
2022-11-02T07:10:57.333Z,9.60
2022-11-02T07:13:25.619Z,9.70
2022-11-02T07:15:54.503Z,9.70
2022-11-02T07:18:22.849Z,9.70
2022-11-02T07:20:52.498Z,9.70
2022-11-02T07:23:23.975Z,9.70
2022-11-02T07:25:52.663Z,9.80
2022-11-02T07:28:21.306Z,9.80
2022-11-02T07:30:50.342Z,9.90
2022-11-02T07:33:18.710Z,9.90
2022-11-02T07:35:47.082Z,9.90
2022-11-02T07:38:16.860Z,9.90
2022-11-02T07:40:45.310Z,10.00
2022-11-02T07:43:13.612Z,10.10
2022-11-02T07:45:41.956Z,10.20
2022-11-02T07:48:10.285Z,10.20
2022-11-02T07:50:38.635Z,10.30
2022-11-02T07:53:08.244Z,10.40
2022-11-02T07:55:38.317Z,10.60
2022-11-02T07:58:08.909Z,10.70
2022-11-02T08:00:40.952Z,10.80
2022-11-02T08:03:11.753Z,10.90
2022-11-02T08:05:42.552Z,11.00
2022-11-02T08:08:13.320Z,11.10
2022-11-02T08:10:43.975Z,11.20
2022-11-02T08:13:15.170Z,11.30
2022-11-02T08:15:43.780Z,11.40
2022-11-02T08:18:15.505Z,11.40
2022-11-02T08:20:45.982Z,11.50
2022-11-02T08:23:15.621Z,11.60
2022-11-02T08:25:46.305Z,11.70
2022-11-02T08:28:16.775Z,11.70
2022-11-02T08:30:45.258Z,11.90
2022-11-02T08:33:15.845Z,11.90
2022-11-02T08:35:45.647Z,12.00
2022-11-02T08:38:15.416Z,12.10
2022-11-02T08:40:45.930Z,12.20
2022-11-02T08:43:15.381Z,12.20
2022-11-02T08:48:33.710Z,12.40
2022-11-02T08:51:05.746Z,12.40
2022-11-02T08:53:34.026Z,12.60
2022-11-02T08:56:03.926Z,12.70
2022-11-02T08:58:32.214Z,12.70
2022-11-02T09:01:00.717Z,12.70
2022-11-02T09:03:29.002Z,12.80
2022-11-02T09:06:01.932Z,12.80
2022-11-02T09:08:31.282Z,13.00
2022-11-02T09:11:01.950Z,13.10
2022-11-02T09:13:32.306Z,13.10
2022-11-02T09:16:01.587Z,13.10
2022-11-02T09:18:30.311Z,13.20
2022-11-02T09:21:02.192Z,13.20
2022-11-02T09:23:30.602Z,13.30
2022-11-02T09:26:00.166Z,13.30
2022-11-02T09:28:29.117Z,13.40
2022-11-02T09:30:58.967Z,13.50
2022-11-02T09:33:29.751Z,13.60
2022-11-02T09:36:04.044Z,13.60
2022-11-02T09:38:32.884Z,13.70
2022-11-02T09:41:15.289Z,13.80
2022-11-02T09:43:53.076Z,13.90
2022-11-02T09:46:28.239Z,14.10
2022-11-02T09:48:59.953Z,14.10
2022-11-02T09:51:32.864Z,13.90
2022-11-02T09:54:11.768Z,13.90
2022-11-02T09:56:44.944Z,14.00
2022-11-02T09:59:15.608Z,14.10
2022-11-02T10:02:01.194Z,14.20
2022-11-02T10:04:56.029Z,14.30
2022-11-02T10:07:49.183Z,14.30
2022-11-02T10:10:25.828Z,14.40
2022-11-02T10:13:03.009Z,14.60
2022-11-02T10:15:43.471Z,14.60
2022-11-02T10:18:19.097Z,14.70
2022-11-02T10:20:50.122Z,14.60
2022-11-02T10:23:24.289Z,14.50
2022-11-02T10:25:53.328Z,14.30
2022-11-02T10:28:27.277Z,14.20
2022-11-02T10:30:55.925Z,14.40
2022-11-02T10:33:29.778Z,14.60
2022-11-02T10:36:20.666Z,14.70
2022-11-02T10:39:03.832Z,14.70
2022-11-02T10:41:47.040Z,14.60
2022-11-02T10:44:28.298Z,14.50
2022-11-02T10:47:08.063Z,14.40
2022-11-02T10:50:15.138Z,14.60
2022-11-02T10:52:46.304Z,14.60
2022-11-02T10:55:22.865Z,14.50
2022-11-02T10:57:52.429Z,14.70
2022-11-02T11:00:29.872Z,15.00
2022-11-02T11:03:09.918Z,15.20
2022-11-02T11:05:53.729Z,15.30
2022-11-02T11:08:41.289Z,15.30
2022-11-02T11:11:16.413Z,15.40
2022-11-02T11:16:39.539Z,15.70
2022-11-02T11:22:27.150Z,15.70
2022-11-02T11:24:55.698Z,16.10
2022-11-02T11:27:24.093Z,16.20
2022-11-02T11:29:56.912Z,16.00
2022-11-02T11:32:30.408Z,15.80
2022-11-02T11:35:03.419Z,15.90
2022-11-02T11:37:33.844Z,15.90
2022-11-02T11:40:04.453Z,16.10
2022-11-02T11:42:36.603Z,16.20
2022-11-02T11:45:07.902Z,16.40
2022-11-02T11:47:38.613Z,16.30
2022-11-02T11:50:18.781Z,16.50
2022-11-02T11:53:20.934Z,16.80
2022-11-02T11:55:50.893Z,16.80
2022-11-02T11:58:22.488Z,16.60
2022-11-02T12:01:09.296Z,16.30
2022-11-02T12:03:54.456Z,16.00
2022-11-02T12:06:28.875Z,15.90
2022-11-02T12:09:04.962Z,15.90
2022-11-02T12:11:48.373Z,15.80
2022-11-02T12:14:36.718Z,15.60
2022-11-02T12:17:38.614Z,15.60
2022-11-02T12:20:30.136Z,15.80
2022-11-02T12:23:07.879Z,15.80
2022-11-02T12:25:48.280Z,15.80
2022-11-02T12:28:37.625Z,15.80
2022-11-02T12:31:17.548Z,15.90
2022-11-02T12:34:01.361Z,16.00
2022-11-02T12:37:09.819Z,15.90
2022-11-02T12:39:43.562Z,15.90
2022-11-02T12:42:26.791Z,16.10
2022-11-02T12:45:15.995Z,16.40
2022-11-02T12:47:56.550Z,16.60
2022-11-02T12:50:37.422Z,16.80
2022-11-02T12:53:22.564Z,17.10
2022-11-02T12:55:54.611Z,17.00
2022-11-02T12:58:28.606Z,16.80
2022-11-02T13:01:03.723Z,16.60
2022-11-02T13:03:40.689Z,16.60
2022-11-02T13:06:14.534Z,16.60
2022-11-02T13:08:48.101Z,16.60
2022-11-02T13:11:23.251Z,16.50
2022-11-02T13:13:54.817Z,16.50
2022-11-02T13:16:27.778Z,16.60
2022-11-02T13:18:58.232Z,16.60
2022-11-02T13:21:38.589Z,16.60
2022-11-02T13:24:17.166Z,16.40
2022-11-02T13:26:47.619Z,16.30
2022-11-02T13:29:25.528Z,16.20
2022-11-02T13:31:57.687Z,16.20
2022-11-02T13:34:33.357Z,16.10
2022-11-02T13:37:07.589Z,16.10
2022-11-02T13:39:40.031Z,16.20
2022-11-02T13:42:32.790Z,16.30
2022-11-02T13:45:37.341Z,16.20
2022-11-02T13:48:31.516Z,16.10
2022-11-02T13:51:05.191Z,15.90
2022-11-02T13:53:40.804Z,15.90
2022-11-02T13:56:11.165Z,15.90
2022-11-02T13:58:48.624Z,15.90
2022-11-02T14:01:21.108Z,15.90
2022-11-02T14:03:54.032Z,15.90
2022-11-02T14:06:27.145Z,15.80
2022-11-02T14:08:59.224Z,15.80
2022-11-02T14:11:47.390Z,15.70
2022-11-02T14:14:22.021Z,15.60
2022-11-02T14:17:17.234Z,15.60
2022-11-02T14:19:53.623Z,15.40
2022-11-02T14:22:22.439Z,15.30
2022-11-02T14:25:18.044Z,15.10
2022-11-02T14:27:47.019Z,15.10
2022-11-02T14:30:45.601Z,14.90
2022-11-02T14:33:50.676Z,14.90
2022-11-02T14:36:40.946Z,14.80
2022-11-02T14:39:20.173Z,14.70
2022-11-02T14:42:22.291Z,14.70
2022-11-02T14:45:20.793Z,14.70
2022-11-02T14:47:49.288Z,14.60
2022-11-02T14:50:21.545Z,14.60
2022-11-02T14:53:00.857Z,14.60
2022-11-02T14:55:32.563Z,14.50
2022-11-02T14:58:09.384Z,14.50
2022-11-02T15:00:54.347Z,14.50
2022-11-02T15:03:33.539Z,14.40
2022-11-02T15:06:06.257Z,14.40
2022-11-02T15:08:37.212Z,14.40
2022-11-02T15:11:42.586Z,14.40
2022-11-02T15:14:32.105Z,14.30
2022-11-02T15:17:01.579Z,14.30
2022-11-02T15:19:38.583Z,14.30
2022-11-02T15:22:36.675Z,14.20
2022-11-02T15:25:12.998Z,14.20
2022-11-02T15:27:43.341Z,14.10
2022-11-02T15:30:16.080Z,14.10
2022-11-02T15:32:50.079Z,14.10
2022-11-02T15:35:22.297Z,14.00
2022-11-02T15:38:16.427Z,13.90
2022-11-02T15:40:49.971Z,13.90
2022-11-02T15:43:41.364Z,13.80
2022-11-02T15:46:16.920Z,13.80
2022-11-02T15:48:54.444Z,13.70
2022-11-02T15:51:30.758Z,13.70
2022-11-02T15:54:25.973Z,13.70
2022-11-02T15:57:05.839Z,13.70
2022-11-02T16:00:08.015Z,13.60
2022-11-02T16:02:39.180Z,13.50
2022-11-02T16:05:08.713Z,13.40
2022-11-02T16:07:57.265Z,13.40
2022-11-02T16:10:33.100Z,13.20
2022-11-02T16:13:11.750Z,13.20
2022-11-02T16:15:42.563Z,13.10
2022-11-02T16:18:25.075Z,13.10
2022-11-02T16:20:55.815Z,13.10
2022-11-02T16:23:26.964Z,13.10
2022-11-02T16:25:58.581Z,13.10
2022-11-02T16:28:28.729Z,13.10
2022-11-02T16:31:14.399Z,13.10
2022-11-02T16:33:45.997Z,13.00
2022-11-02T16:36:17.818Z,13.00
2022-11-02T16:38:55.983Z,13.00
2022-11-02T16:41:27.583Z,12.90
2022-11-02T16:43:57.133Z,12.90
2022-11-02T16:46:31.997Z,12.80
2022-11-02T16:49:16.304Z,12.80
2022-11-02T16:51:56.709Z,12.80
2022-11-02T16:54:41.388Z,12.60
2022-11-02T16:57:17.206Z,12.60
2022-11-02T16:59:52.395Z,12.60
2022-11-02T17:02:26.147Z,12.60
2022-11-02T17:05:02.442Z,12.70
2022-11-02T17:07:37.306Z,12.70
2022-11-02T17:10:07.481Z,12.70
2022-11-02T17:12:39.051Z,12.70
2022-11-02T17:15:18.028Z,12.70
2022-11-02T17:17:47.100Z,12.70
2022-11-02T17:20:24.499Z,12.70
2022-11-02T17:22:56.304Z,12.70
2022-11-02T17:25:27.087Z,12.60
2022-11-02T17:27:58.430Z,12.60
2022-11-02T17:30:46.811Z,12.60
2022-11-02T17:33:25.106Z,12.60
2022-11-02T17:35:55.203Z,12.60
2022-11-02T17:38:27.127Z,12.60
2022-11-02T17:40:56.169Z,12.50
2022-11-02T17:43:24.981Z,12.50
2022-11-02T17:45:57.501Z,12.50
2022-11-02T17:48:28.486Z,12.40
2022-11-02T17:50:59.875Z,12.40
2022-11-02T17:53:28.732Z,12.50
2022-11-02T17:55:57.526Z,12.50
2022-11-02T17:58:29.759Z,12.60
2022-11-02T18:00:58.126Z,12.60
2022-11-02T18:03:31.086Z,12.70
2022-11-02T18:06:00.699Z,12.70
2022-11-02T18:08:51.824Z,12.70
2022-11-02T18:11:25.031Z,12.70
2022-11-02T18:13:56.131Z,12.80
2022-11-02T18:16:24.555Z,12.80
2022-11-02T18:18:53.846Z,12.80
2022-11-02T18:21:22.289Z,12.80
2022-11-02T18:23:50.625Z,12.80
2022-11-02T18:26:19.006Z,12.80
2022-11-02T18:28:47.405Z,12.80
2022-11-02T18:31:17.181Z,12.80
2022-11-02T18:33:45.982Z,12.80
2022-11-02T18:36:14.336Z,12.80
2022-11-02T18:38:42.707Z,12.80
2022-11-02T18:41:26.611Z,12.80
2022-11-02T18:44:00.686Z,12.80
2022-11-02T18:46:34.459Z,12.80
2022-11-02T18:49:02.998Z,12.80
2022-11-02T18:51:31.381Z,12.80
2022-11-02T18:54:01.038Z,12.80
2022-11-02T18:56:29.864Z,12.80
2022-11-02T18:58:58.302Z,12.90
2022-11-02T19:01:29.380Z,12.90
2022-11-02T19:04:01.168Z,12.90
2022-11-02T19:06:49.280Z,13.00
2022-11-02T19:09:19.560Z,12.90
2022-11-02T19:11:49.215Z,12.90
2022-11-02T19:14:21.574Z,12.90
2022-11-02T19:16:50.414Z,12.90
2022-11-02T19:19:20.383Z,13.00
2022-11-02T19:21:48.775Z,13.00
2022-11-02T19:24:17.154Z,13.00
2022-11-02T19:26:45.794Z,13.10
2022-11-02T19:29:14.228Z,13.10
2022-11-02T19:31:42.627Z,13.10
2022-11-02T19:34:11.222Z,13.10
2022-11-02T19:36:40.960Z,13.10
2022-11-02T19:39:10.553Z,13.10
2022-11-02T19:41:39.833Z,13.10
2022-11-02T19:44:08.193Z,13.10
2022-11-02T19:46:36.730Z,13.10
2022-11-02T19:49:05.172Z,13.10
2022-11-02T19:51:33.792Z,13.10
2022-11-02T19:54:04.271Z,13.10
2022-11-02T19:56:33.827Z,13.10
2022-11-02T19:59:02.612Z,13.10
2022-11-02T20:01:35.282Z,13.20
2022-11-02T20:04:04.513Z,13.20
2022-11-02T20:06:35.615Z,13.40
2022-11-02T20:09:06.872Z,13.40
2022-11-02T20:11:36.216Z,13.40
2022-11-02T20:14:05.336Z,13.40
2022-11-02T20:16:33.709Z,13.30
2022-11-02T20:19:02.253Z,13.30
2022-11-02T20:21:38.187Z,13.30
2022-11-02T20:24:12.827Z,13.30
2022-11-02T20:26:42.460Z,13.20
2022-11-02T20:29:13.850Z,13.20
2022-11-02T20:31:45.622Z,13.20
2022-11-02T20:34:14.499Z,13.20
2022-11-02T20:36:42.815Z,13.20
2022-11-02T20:39:13.420Z,13.20
2022-11-02T20:41:41.741Z,13.20
2022-11-02T20:44:10.104Z,13.20
2022-11-02T20:46:41.460Z,13.30
2022-11-02T20:49:21.704Z,13.20
2022-11-02T20:51:58.017Z,13.20
2022-11-02T20:54:29.872Z,13.30
2022-11-02T20:56:58.605Z,13.20
2022-11-02T20:59:26.886Z,13.20
2022-11-02T21:01:55.367Z,13.10
2022-11-02T21:04:23.976Z,13.10
2022-11-02T21:06:52.277Z,13.20
2022-11-02T21:09:21.056Z,13.20
2022-11-02T21:12:08.171Z,13.10
2022-11-02T21:14:36.373Z,13.10
2022-11-02T21:17:06.836Z,13.10
2022-11-02T21:19:35.191Z,13.00
2022-11-02T21:22:03.497Z,13.00
2022-11-02T21:24:31.823Z,13.10
2022-11-02T21:27:01.504Z,13.10
2022-11-02T21:29:30.326Z,13.00
2022-11-02T21:31:58.567Z,13.10
2022-11-02T21:34:27.132Z,13.20
2022-11-02T21:36:57.619Z,13.20
2022-11-02T21:39:25.965Z,13.10
2022-11-02T21:41:54.389Z,13.20
2022-11-02T21:44:28.608Z,13.20
2022-11-02T21:46:56.889Z,13.30
2022-11-02T21:49:25.373Z,13.30
2022-11-02T21:51:53.598Z,13.30
2022-11-02T21:54:21.889Z,13.30
2022-11-02T21:56:50.469Z,13.20
2022-11-02T21:59:18.850Z,13.20
2022-11-02T22:01:49.284Z,13.20
2022-11-02T22:04:21.694Z,13.20
2022-11-02T22:06:50.745Z,13.20
2022-11-02T22:09:18.985Z,13.10
2022-11-02T22:11:47.573Z,13.20
2022-11-02T22:14:15.071Z,13.20
2022-11-02T22:16:44.953Z,13.20
2022-11-02T22:19:15.382Z,13.20
2022-11-02T22:21:46.137Z,13.30
2022-11-02T22:24:14.444Z,13.30
2022-11-02T22:26:42.969Z,13.30
2022-11-02T22:29:11.570Z,13.20
2022-11-02T22:31:41.735Z,13.30
2022-11-02T22:34:12.196Z,13.20
2022-11-02T22:36:43.269Z,13.10
2022-11-02T22:39:12.682Z,13.10
2022-11-02T22:41:42.606Z,13.10
2022-11-02T22:44:14.773Z,13.10
2022-11-02T22:46:44.608Z,13.10
2022-11-02T22:49:15.436Z,13.10
2022-11-02T22:51:47.538Z,13.10
2022-11-02T22:54:17.423Z,13.10
2022-11-02T22:56:47.072Z,13.10
2022-11-02T22:59:15.571Z,13.10
2022-11-02T23:01:44.182Z,13.10
2022-11-02T23:04:14.232Z,13.10
2022-11-02T23:06:42.475Z,13.20
2022-11-02T23:09:13.126Z,13.20
2022-11-02T23:11:41.428Z,13.20
2022-11-02T23:14:11.397Z,13.10
2022-11-02T23:16:42.156Z,13.20
2022-11-02T23:19:27.140Z,13.20
2022-11-02T23:22:15.121Z,13.40
2022-11-02T23:25:09.078Z,13.50
2022-11-02T23:27:59.471Z,13.50
2022-11-02T23:30:47.314Z,13.50
2022-11-02T23:33:15.560Z,13.50
2022-11-02T23:36:01.479Z,13.50
2022-11-02T23:38:50.579Z,13.50
2022-11-02T23:41:23.302Z,13.50
2022-11-02T23:43:51.550Z,13.50
2022-11-02T23:46:19.841Z,13.40
2022-11-02T23:48:51.138Z,13.40
2022-11-02T23:51:39.399Z,13.40
2022-11-02T23:54:25.427Z,13.30
2022-11-02T23:56:54.985Z,13.30
2022-11-02T23:59:25.772Z,13.20
